Time;durP1;ratioP1;P1;durP2;ratioP2;P2;SDS_P1;SDS_P2;PMS_P1;PMS_P2;Temp;Humidity;BMP_temperature;BMP_pressure;BME280_temperature;BME280_humidity;BME280_pressure;Samples;Min_cycle;Max_cycle;Signal;HPM_P1;HPM_P2
2021/12/05 00:25:58;;;;;;;23.10;10.80;;;;;;;4.68;50.39;97623.08;211933;1331;138984;-61
2021/12/05 01:19:07;;;;;;;22.50;10.40;;;;;;;4.48;50.96;97620.63;212876;1320;139127;-58
2021/12/05 01:40:30;;;;;;;21.50;9.70;;;;;;;4.48;51.06;97619.76;211712;1331;139212;-58
2021/12/05 02:32:52;;;;;;;20.00;10.00;;;;;;;4.18;51.75;97617.53;212096;1330;139188;-60
2021/12/05 02:38:29;;;;;;;19.20;9.20;;;;;;;4.14;51.97;97606.17;212694;1322;139001;-58
2021/12/05 02:43:38;;;;;;;16.50;9.00;;;;;;;4.09;52.04;97605.74;212843;1322;139369;-60
2021/12/05 02:48:42;;;;;;;18.00;9.30;;;;;;;4.05;52.12;97608.80;212189;1328;139020;-62
2021/12/05 02:53:50;;;;;;;16.30;9.60;;;;;;;4.02;52.37;97610.20;212310;1327;139697;-61
2021/12/05 02:59:03;;;;;;;16.90;8.40;;;;;;;3.98;52.33;97612.73;212277;1328;139793;-58
2021/12/05 03:04:08;;;;;;;16.20;8.50;;;;;;;3.98;52.53;97611.31;212462;1326;139410;-57
2021/12/05 03:09:13;;;;;;;16.90;8.90;;;;;;;3.98;52.60;97614.30;212893;1325;139040;-55
2021/12/05 03:14:16;;;;;;;15.70;9.00;;;;;;;4.00;52.74;97611.02;212291;1323;289623;-57
2021/12/05 03:19:21;;;;;;;17.30;8.90;;;;;;;4.02;52.46;97605.63;212177;1330;138739;-63
2021/12/05 03:24:29;;;;;;;18.00;9.10;;;;;;;4.00;52.61;97605.23;212719;1325;139180;-60
2021/12/05 03:29:32;;;;;;;16.00;8.50;;;;;;;3.99;52.74;97608.25;212005;1328;139032;-59
2021/12/05 03:34:36;;;;;;;16.60;9.30;;;;;;;4.02;52.42;97609.13;212778;1328;139041;-59
2021/12/05 03:39:39;;;;;;;18.60;8.70;;;;;;;4.05;52.58;97607.61;212271;1326;138972;-61
2021/12/05 03:44:43;;;;;;;17.30;9.10;;;;;;;4.03;52.51;97610.13;212093;1327;139194;-58
2021/12/05 03:49:50;;;;;;;18.50;9.30;;;;;;;4.03;52.66;97601.71;212228;1331;139648;-58
2021/12/05 03:54:53;;;;;;;16.40;9.70;;;;;;;4.00;52.75;97602.39;212130;1325;139594;-58
2021/12/05 03:59:58;;;;;;;14.60;8.70;;;;;;;3.97;52.83;97604.54;212097;1332;139262;-60
2021/12/05 04:05:01;;;;;;;16.20;9.60;;;;;;;3.94;52.81;97614.89;212063;1322;140108;-56
2021/12/05 04:10:05;;;;;;;18.80;9.30;;;;;;;3.91;53.01;97618.55;212080;1325;139573;-59
2021/12/05 04:15:10;;;;;;;16.70;8.80;;;;;;;3.94;53.09;97615.96;212529;1329;139173;-57
2021/12/05 04:20:15;;;;;;;15.90;8.90;;;;;;;3.95;53.07;97615.69;213398;1325;139846;-66
2021/12/05 04:25:20;;;;;;;20.40;8.90;;;;;;;3.96;52.78;97625.10;212656;1322;138803;-60
2021/12/05 04:30:25;;;;;;;17.00;9.20;;;;;;;3.97;52.94;97623.13;212455;1330;139777;-58
2021/12/05 04:35:30;;;;;;;15.40;7.90;;;;;;;3.92;52.91;97629.02;212500;1323;139090;-61
2021/12/05 04:40:34;;;;;;;15.80;7.90;;;;;;;3.78;53.16;97636.83;212682;1326;139953;-67
2021/12/05 04:45:40;;;;;;;15.90;8.00;;;;;;;3.63;53.74;97641.36;212113;1325;138819;-61
2021/12/05 04:50:44;;;;;;;16.60;8.50;;;;;;;3.38;54.44;97645.42;211965;1328;143346;-55
2021/12/05 04:55:48;;;;;;;15.80;8.00;;;;;;;3.29;55.26;97651.21;212086;1325;139569;-65
2021/12/05 05:00:53;;;;;;;14.10;8.20;;;;;;;3.22;55.77;97653.48;212682;1329;139363;-62
2021/12/05 05:06:19;;;;;;;15.10;8.20;;;;;;;3.14;56.35;97661.80;212203;1326;138793;-64
2021/12/05 05:11:25;;;;;;;14.00;8.10;;;;;;;3.15;56.89;97664.20;212161;1323;138926;-59
2021/12/05 05:16:28;;;;;;;14.10;8.30;;;;;;;3.14;57.11;97657.96;212850;1325;138991;-61
2021/12/05 05:21:43;;;;;;;14.50;8.30;;;;;;;3.14;57.54;97661.09;212679;1322;139880;-64
2021/12/05 05:48:16;;;;;;;12.90;7.30;;;;;;;3.27;59.44;97677.73;211941;1331;139567;-58
2021/12/05 05:53:19;;;;;;;13.60;7.70;;;;;;;3.41;59.78;97686.46;212417;1329;140035;-60
2021/12/05 05:58:38;;;;;;;11.30;6.70;;;;;;;3.55;59.83;97686.91;212291;1326;139696;-59
2021/12/05 06:03:41;;;;;;;11.50;7.10;;;;;;;3.58;59.80;97691.49;212208;1325;139200;-60
2021/12/05 06:08:45;;;;;;;11.70;7.20;;;;;;;3.55;60.13;97697.73;211917;1326;139829;-59
2021/12/05 06:13:49;;;;;;;11.60;7.30;;;;;;;3.53;60.17;97699.77;212532;1325;138911;-58
2021/12/05 06:18:53;;;;;;;13.70;7.60;;;;;;;3.53;60.40;97699.81;212052;1330;138739;-58
2021/12/05 06:23:56;;;;;;;14.10;8.20;;;;;;;3.52;60.64;97703.87;212620;1326;139595;-57
2021/12/05 06:29:08;;;;;;;15.70;8.20;;;;;;;3.54;60.82;97706.43;213290;1322;139017;-60
2021/12/05 06:49:58;;;;;;;12.60;7.60;;;;;;;3.51;61.63;97720.25;212592;1325;138821;-59
2021/12/05 06:55:17;;;;;;;11.70;7.10;;;;;;;3.55;61.77;97722.84;211960;1329;140031;-64
2021/12/05 07:00:27;;;;;;;11.70;7.10;;;;;;;3.66;61.79;97727.15;212214;1331;139604;-58
2021/12/05 07:11:03;;;;;;;11.00;7.40;;;;;;;3.83;61.84;97737.80;212608;1325;139162;-65
2021/12/05 07:16:16;;;;;;;12.80;8.10;;;;;;;3.81;61.75;97744.92;212608;1325;139341;-59
2021/12/05 07:42:47;;;;;;;37.00;21.30;;;;;;;4.04;62.51;97753.98;212069;1328;138913;-60
2021/12/05 07:47:52;;;;;;;15.40;8.70;;;;;;;4.13;62.60;97749.95;211997;1323;139159;-61
2021/12/05 07:53:04;;;;;;;10.90;7.50;;;;;;;4.14;62.37;97751.34;212112;1325;210209;-63
2021/12/05 08:14:57;;;;;;;12.50;7.60;;;;;;;4.19;62.75;97750.30;212335;1325;139481;-63
2021/12/05 08:19:44;;;;;;;12.90;7.70;;;;;;;4.16;62.53;97752.57;211972;1323;140346;-65
2021/12/05 08:24:49;;;;;;;13.80;8.50;;;;;;;4.14;62.79;97756.38;211914;1324;139211;-61
2021/12/05 08:29:56;;;;;;;12.10;7.90;;;;;;;4.14;62.74;97761.49;212371;1323;139148;-60
2021/12/05 08:35:14;;;;;;;15.90;8.80;;;;;;;4.10;62.51;97761.05;211866;1331;139460;-59
2021/12/05 09:29:09;;;;;;;18.70;11.30;;;;;;;4.35;63.80;97769.23;212320;1322;125622;-59
2021/12/05 10:11:41;;;;;;;21.30;12.50;;;;;;;4.76;65.29;97780.20;212332;1325;140489;-61
2021/12/05 10:17:34;;;;;;;22.90;12.90;;;;;;;4.82;64.56;97783.89;212526;1323;139571;-58
2021/12/05 10:38:47;;;;;;;24.80;13.50;;;;;;;5.16;64.49;97788.75;212193;1325;139115;-58
2021/12/05 10:43:53;;;;;;;20.10;12.80;;;;;;;5.10;64.11;97793.10;212790;1326;139592;-60
2021/12/05 10:49:05;;;;;;;22.40;12.60;;;;;;;5.06;64.14;97793.04;211732;1331;139480;-60
2021/12/05 10:54:20;;;;;;;20.90;12.70;;;;;;;5.04;64.40;97787.19;213056;1322;138949;-59
2021/12/05 10:59:36;;;;;;;24.60;13.50;;;;;;;5.03;64.46;97793.56;212680;1323;139222;-61
2021/12/05 11:04:43;;;;;;;21.50;13.10;;;;;;;5.04;64.54;97796.81;212380;1323;139856;-57
2021/12/05 11:09:49;;;;;;;24.50;12.00;;;;;;;5.10;64.59;97799.46;212073;1323;140029;-60
2021/12/05 11:15:05;;;;;;;19.00;10.40;;;;;;;5.20;64.63;97807.10;212037;1324;208402;-60
2021/12/05 11:20:21;;;;;;;18.00;10.80;;;;;;;5.20;64.00;97804.29;212320;1322;139183;-59
2021/12/05 11:25:28;;;;;;;69.50;33.80;;;;;;;5.21;64.53;97798.09;212501;1322;139232;-58
2021/12/05 11:30:35;;;;;;;21.30;12.10;;;;;;;5.33;64.15;97792.96;212185;1322;139120;-58
2021/12/05 11:35:42;;;;;;;19.60;11.40;;;;;;;5.26;63.91;97790.43;212601;1329;138661;-60
2021/12/05 11:40:51;;;;;;;22.20;11.90;;;;;;;5.20;63.82;97793.56;211942;1329;139256;-61
2021/12/05 11:46:06;;;;;;;18.40;12.10;;;;;;;5.17;63.90;97802.05;212370;1323;139254;-59
2021/12/05 11:51:28;;;;;;;15.70;10.50;;;;;;;5.10;63.78;97811.73;212627;1320;141485;-62
2021/12/05 11:56:31;;;;;;;17.40;11.30;;;;;;;5.00;63.96;97824.84;212364;1322;139351;-60
2021/12/05 12:01:40;;;;;;;199.20;102.30;;;;;;;4.92;63.95;97820.90;212007;1325;139557;-59
2021/12/05 12:06:45;;;;;;;37.20;22.80;;;;;;;5.00;64.29;97825.39;212467;1322;141020;-57
2021/12/05 12:11:49;;;;;;;;;;;;;;;5.09;64.40;97825.69;211893;1335;139875;-62
2021/12/05 12:16:52;;;;;;;23.70;13.60;;;;;;;5.13;64.24;97842.16;212736;1324;126345;-60
2021/12/05 12:21:59;;;;;;;20.50;12.50;;;;;;;5.02;63.84;97856.86;212063;1328;139877;-59
2021/12/05 12:27:03;;;;;;;21.40;12.20;;;;;;;4.91;63.74;97861.40;212340;1326;139704;-59
2021/12/05 12:32:12;;;;;;;21.50;12.70;;;;;;;4.78;63.85;97858.48;212304;1321;140570;-59
2021/12/05 12:37:16;;;;;;;21.60;13.20;;;;;;;4.68;63.88;97861.48;212157;1325;138785;-59
2021/12/05 12:42:25;;;;;;;22.80;14.40;;;;;;;4.61;64.00;97856.65;211987;1325;139321;-59
2021/12/05 12:47:33;;;;;;;27.40;15.80;;;;;;;4.55;64.21;97852.23;212251;1324;138588;-60
2021/12/05 12:53:12;;;;;;;29.50;17.70;;;;;;;4.65;65.17;97854.10;211629;1332;140965;-61
2021/12/05 12:58:33;;;;;;;29.10;16.70;;;;;;;4.87;64.60;97855.67;212616;1327;140599;-62
2021/12/05 13:05:00;;;;;;;29.60;16.70;;;;;;;4.86;64.43;97846.21;212842;1322;139577;-60
2021/12/05 13:10:08;;;;;;;25.70;16.70;;;;;;;4.87;64.26;97838.63;211792;1331;139403;-64
2021/12/05 13:15:16;;;;;;;27.10;16.30;;;;;;;4.80;64.21;97835.52;211983;1331;139016;-60
2021/12/05 13:20:27;;;;;;;30.90;17.70;;;;;;;4.74;64.28;97830.02;212172;1323;139713;-61
2021/12/05 13:25:36;;;;;;;30.20;17.00;;;;;;;4.71;64.46;97834.27;212083;1324;140649;-61
2021/12/05 13:30:42;;;;;;;31.10;18.30;;;;;;;4.70;64.35;97836.06;211955;1328;139822;-62
2021/12/05 13:35:49;;;;;;;31.90;19.20;;;;;;;4.64;64.32;97848.35;212304;1325;139166;-62
2021/12/05 13:40:56;;;;;;;28.90;17.80;;;;;;;4.62;64.55;97849.89;212181;1325;139976;-61
2021/12/05 13:46:00;;;;;;;76.00;44.30;;;;;;;4.68;65.12;97850.59;211650;1331;139548;-60
2021/12/05 13:51:05;;;;;;;31.60;18.90;;;;;;;4.95;65.47;97855.69;213309;1322;140261;-59
2021/12/05 13:56:11;;;;;;;31.90;19.90;;;;;;;4.98;64.83;97857.77;212615;1322;139575;-58
2021/12/05 14:01:26;;;;;;;31.30;19.30;;;;;;;4.99;64.77;97852.84;212069;1328;139102;-59
2021/12/05 14:06:52;;;;;;;32.40;19.10;;;;;;;4.97;64.72;97847.48;212082;1326;141977;-59
2021/12/05 14:12:17;;;;;;;31.10;18.80;;;;;;;5.00;64.72;97853.84;212761;1322;140285;-59
2021/12/05 14:17:25;;;;;;;34.40;19.90;;;;;;;5.05;64.70;97863.77;212081;1322;139851;-56
2021/12/05 14:22:31;;;;;;;29.40;18.40;;;;;;;5.08;64.85;97867.10;212738;1326;139233;-66
2021/12/05 14:27:38;;;;;;;26.50;18.10;;;;;;;5.10;64.60;97870.67;212079;1328;140455;-64
2021/12/05 14:32:44;;;;;;;27.90;18.50;;;;;;;5.11;64.73;97871.84;212290;1323;139435;-62
2021/12/05 14:37:50;;;;;;;32.20;18.30;;;;;;;5.11;64.66;97876.04;212482;1322;139539;-62
2021/12/05 14:42:53;;;;;;;;;;;;;;;5.12;64.65;97873.72;212554;1322;139358;-57
2021/12/05 14:48:02;;;;;;;90.40;48.90;;;;;;;5.23;65.87;97884.11;211887;1321;126371;-60
2021/12/05 14:53:24;;;;;;;34.10;20.50;;;;;;;5.55;65.58;97898.25;212622;1324;140687;-61
2021/12/05 14:58:30;;;;;;;30.80;18.70;;;;;;;5.62;64.84;97894.65;212676;1322;139555;-61
2021/12/05 15:03:34;;;;;;;29.60;19.30;;;;;;;5.57;64.55;97904.63;212260;1327;140832;-61
2021/12/05 15:08:39;;;;;;;31.90;19.50;;;;;;;5.52;64.59;97910.20;212097;1326;139394;-61
2021/12/05 15:13:43;;;;;;;119.00;75.70;;;;;;;5.48;64.56;97918.00;212062;1327;139168;-62
2021/12/05 15:18:46;;;;;;;40.50;22.80;;;;;;;5.64;65.14;97918.47;212218;1322;139240;-61
2021/12/05 15:23:49;;;;;;;32.00;19.60;;;;;;;5.65;64.52;97930.66;212578;1322;139450;-60
2021/12/05 15:29:00;;;;;;;34.40;21.30;;;;;;;5.47;64.12;97938.81;211967;1329;139903;-61
2021/12/05 15:34:32;;;;;;;36.70;21.50;;;;;;;5.36;64.37;97942.61;212742;1328;139456;-62
2021/12/05 15:39:39;;;;;;;38.00;23.40;;;;;;;5.31;64.62;97955.42;213452;1324;140559;-62
2021/12/05 15:44:43;;;;;;;43.50;24.20;;;;;;;5.31;64.56;97955.75;212494;1325;139450;-60
2021/12/05 15:49:56;;;;;;;38.90;22.60;;;;;;;5.35;64.61;97951.85;212010;1329;140736;-62
2021/12/05 15:55:00;;;;;;;39.30;25.30;;;;;;;5.37;64.46;97966.98;212096;1329;139714;-62
2021/12/05 16:00:39;;;;;;;43.40;25.90;;;;;;;5.35;64.56;97970.61;212579;1325;140084;-60
2021/12/05 16:05:44;;;;;;;169.70;103.50;;;;;;;5.37;64.71;97970.37;212458;1326;139181;-61
2021/12/05 16:10:50;;;;;;;43.70;26.80;;;;;;;5.65;66.06;97963.43;212433;1325;140843;-59
2021/12/05 16:16:05;;;;;;;42.50;25.40;;;;;;;5.82;65.00;97958.92;212203;1325;138843;-60
2021/12/05 16:21:27;;;;;;;37.00;24.20;;;;;;;5.72;64.46;97952.41;212521;1326;139099;-58
2021/12/05 16:26:30;;;;;;;37.90;24.60;;;;;;;5.53;64.38;97945.48;212832;1328;139943;-61
2021/12/05 16:31:44;;;;;;;39.90;25.50;;;;;;;5.32;64.32;97940.58;212766;1324;139811;-59
2021/12/05 16:36:56;;;;;;;40.50;23.50;;;;;;;5.23;64.40;97953.02;213153;1324;141610;-59
2021/12/05 16:42:04;;;;;;;42.40;25.30;;;;;;;5.21;64.76;97955.59;212003;1329;141505;-60
2021/12/05 16:47:14;;;;;;;38.20;24.00;;;;;;;5.20;64.76;97955.66;212708;1324;139139;-59
2021/12/05 16:52:42;;;;;;;40.40;24.30;;;;;;;5.17;64.63;97956.89;213021;1328;139608;-60
2021/12/05 16:57:56;;;;;;;40.40;24.70;;;;;;;5.16;64.70;97962.77;212602;1321;139660;-60
2021/12/05 17:03:01;;;;;;;40.10;24.10;;;;;;;5.18;64.94;97966.72;212494;1327;139245;-64
2021/12/05 17:08:14;;;;;;;40.00;22.80;;;;;;;5.16;64.86;97967.19;212306;1329;139556;-64
2021/12/05 17:13:27;;;;;;;40.70;23.20;;;;;;;5.07;64.66;97970.65;212319;1325;139498;-62
2021/12/05 17:18:36;;;;;;;236.00;147.10;;;;;;;5.11;65.31;97971.50;212214;1330;139438;-58
2021/12/05 17:23:47;;;;;;;45.60;25.90;;;;;;;5.34;65.75;97971.07;212287;1329;140467;-62
2021/12/05 17:28:53;;;;;;;43.40;24.90;;;;;;;5.38;65.02;97971.17;213206;1328;139623;-60
2021/12/05 17:34:01;;;;;;;42.00;24.80;;;;;;;5.36;64.97;97976.74;212689;1323;140270;-59
2021/12/05 17:39:18;;;;;;;42.90;25.60;;;;;;;5.35;64.94;97975.89;212705;1322;140456;-58
2021/12/05 17:44:22;;;;;;;40.00;25.20;;;;;;;5.34;64.99;97970.69;212428;1324;139537;-60
2021/12/05 17:49:29;;;;;;;44.00;26.50;;;;;;;5.32;64.59;97965.04;212928;1328;140379;-61
2021/12/05 17:54:40;;;;;;;41.00;25.30;;;;;;;5.29;65.01;97967.82;212716;1328;139766;-58
2021/12/05 18:04:57;;;;;;;45.00;26.40;;;;;;;5.18;64.84;97961.92;212243;1329;139156;-60
2021/12/05 18:10:02;;;;;;;43.80;26.10;;;;;;;5.15;64.80;97971.45;212464;1325;139634;-63
2021/12/05 18:15:18;;;;;;;45.90;27.40;;;;;;;5.09;64.81;97969.88;212413;1327;139501;-59
2021/12/05 18:20:25;;;;;;;106.20;66.20;;;;;;;5.07;65.44;97970.83;212336;1322;140295;-57
2021/12/05 18:25:30;;;;;;;50.80;31.10;;;;;;;5.26;65.65;97986.83;212615;1322;139997;-65
2021/12/05 18:30:36;;;;;;;56.00;33.00;;;;;;;5.27;65.08;97999.80;212174;1327;140359;-63
2021/12/05 18:35:39;;;;;;;60.30;37.00;;;;;;;5.40;65.82;98007.99;212319;1324;140189;-65
2021/12/05 18:40:46;;;;;;;57.40;34.80;;;;;;;5.54;65.44;98018.48;212316;1326;139394;-60
2021/12/05 18:45:49;;;;;;;58.90;34.30;;;;;;;5.48;65.10;98033.92;212013;1330;139624;-63
2021/12/05 18:50:53;;;;;;;56.80;33.00;;;;;;;5.41;65.19;98034.85;212915;1322;139410;-65
2021/12/05 18:55:56;;;;;;;58.00;34.70;;;;;;;5.39;65.15;98046.06;212780;1321;139384;-60
2021/12/05 19:06:35;;;;;;;58.60;34.80;;;;;;;5.19;65.15;98056.50;212719;1323;141795;-62
2021/12/05 19:11:43;;;;;;;56.10;33.00;;;;;;;5.11;65.15;98062.59;212254;1329;139053;-69
2021/12/05 19:16:50;;;;;;;55.70;33.90;;;;;;;5.08;65.41;98066.58;212054;1326;223048;-61
2021/12/05 19:21:55;;;;;;;57.40;35.30;;;;;;;5.08;65.52;98071.89;212149;1324;139098;-65
2021/12/05 19:27:00;;;;;;;52.20;32.60;;;;;;;5.10;65.24;98076.70;211939;1332;140067;-62
2021/12/05 19:32:06;;;;;;;58.60;35.20;;;;;;;5.14;65.61;98070.49;212025;1330;139679;-65
2021/12/05 19:37:09;;;;;;;;;;;;;;;5.24;65.82;98070.43;212316;1328;139536;-64
2021/12/05 19:42:12;;;;;;;55.10;33.50;;;;;;;5.41;66.04;98080.55;212320;1326;125223;-65
2021/12/05 19:47:16;;;;;;;92.60;58.60;;;;;;;5.28;65.43;98079.02;213159;1321;139074;-64
2021/12/05 19:52:19;;;;;;;54.60;34.90;;;;;;;5.36;66.16;98081.21;212722;1323;140041;-64
2021/12/05 19:57:22;;;;;;;49.90;31.50;;;;;;;5.50;65.66;98087.27;212313;1325;139234;-64
2021/12/05 20:02:26;;;;;;;50.90;32.70;;;;;;;5.41;65.31;98087.59;212937;1321;140523;-59
2021/12/05 20:07:29;;;;;;;49.00;29.50;;;;;;;5.33;65.12;98085.41;212885;1322;139689;-57
2021/12/05 20:12:32;;;;;;;47.10;29.50;;;;;;;5.24;65.23;98080.49;212635;1326;142046;-66
2021/12/05 20:17:36;;;;;;;57.40;35.60;;;;;;;5.17;65.34;98081.56;212326;1326;139022;-60
2021/12/05 20:22:39;;;;;;;46.90;29.40;;;;;;;5.09;65.34;98086.41;212439;1325;139187;-59
2021/12/05 20:27:43;;;;;;;50.10;30.60;;;;;;;5.09;65.65;98077.46;212847;1326;139257;-58
2021/12/05 20:32:47;;;;;;;49.10;30.40;;;;;;;5.14;65.86;98067.14;212257;1326;139684;-62
2021/12/05 20:37:56;;;;;;;48.00;30.10;;;;;;;5.19;65.77;98061.95;212075;1323;139704;-60
2021/12/05 20:43:00;;;;;;;73.10;49.00;;;;;;;5.20;65.76;98067.68;212560;1327;139243;-57
2021/12/05 20:48:04;;;;;;;52.90;32.00;;;;;;;5.36;66.34;98060.98;212998;1323;140600;-61
2021/12/05 20:53:10;;;;;;;50.70;31.70;;;;;;;5.48;66.02;98059.80;213072;1322;139362;-58
2021/12/05 20:58:14;;;;;;;47.50;29.90;;;;;;;5.43;65.66;98051.94;212152;1325;139735;-66
2021/12/05 21:03:18;;;;;;;49.80;31.30;;;;;;;5.34;65.44;98063.58;212252;1321;139119;-63
2021/12/05 21:08:23;;;;;;;47.00;31.20;;;;;;;5.21;65.76;98062.02;212200;1323;139257;-61
2021/12/05 21:13:27;;;;;;;53.50;31.70;;;;;;;5.02;65.38;98060.58;212342;1326;139206;-57
2021/12/05 21:18:33;;;;;;;51.60;31.80;;;;;;;4.94;65.78;98054.52;212768;1323;140262;-62
2021/12/05 21:23:36;;;;;;;50.50;31.00;;;;;;;4.97;66.13;98034.17;211999;1324;139213;-64
2021/12/05 21:28:40;;;;;;;51.10;32.30;;;;;;;5.05;66.22;98028.08;212978;1326;139315;-60
2021/12/05 21:33:44;;;;;;;52.70;31.60;;;;;;;5.10;66.46;98027.27;212366;1328;138823;-59
2021/12/05 21:38:48;;;;;;;50.00;31.20;;;;;;;5.11;66.24;98024.61;212056;1325;139194;-61
2021/12/05 21:43:53;;;;;;;51.30;31.00;;;;;;;5.08;66.13;98026.69;212322;1323;139885;-61
2021/12/05 21:48:57;;;;;;;52.20;30.70;;;;;;;5.00;66.13;98027.00;212173;1329;138777;-59
2021/12/05 21:54:03;;;;;;;47.80;30.20;;;;;;;4.91;66.20;98030.10;212698;1322;139031;-59
2021/12/05 21:59:06;;;;;;;51.80;30.20;;;;;;;4.83;66.12;98037.73;213066;1325;140310;-58
2021/12/05 22:04:09;;;;;;;54.20;31.20;;;;;;;4.79;66.21;98039.94;212469;1322;139939;-59
2021/12/05 22:09:13;;;;;;;51.20;30.10;;;;;;;4.81;66.29;98047.86;213055;1322;142872;-56
2021/12/05 22:14:17;;;;;;;46.50;28.60;;;;;;;4.87;66.39;98056.84;212780;1323;139533;-60
2021/12/05 22:19:20;;;;;;;52.40;32.00;;;;;;;4.82;66.83;98062.21;212342;1322;139840;-58
2021/12/05 22:24:23;;;;;;;48.20;30.30;;;;;;;4.86;66.83;98062.73;212094;1324;139260;-55
2021/12/05 22:29:26;;;;;;;49.80;31.70;;;;;;;4.89;66.92;98063.96;213184;1322;138838;-57
2021/12/05 22:34:29;;;;;;;50.90;31.50;;;;;;;4.92;66.85;98068.73;212901;1323;138703;-55
2021/12/05 22:39:33;;;;;;;53.20;32.30;;;;;;;4.95;66.81;98076.27;212489;1323;139305;-60
2021/12/05 22:44:36;;;;;;;49.80;30.80;;;;;;;4.98;66.93;98077.86;212369;1323;139887;-60
2021/12/05 22:49:39;;;;;;;57.50;33.60;;;;;;;4.94;66.59;98084.77;212432;1325;140421;-69
2021/12/05 22:54:43;;;;;;;51.90;30.70;;;;;;;4.92;66.75;98087.48;213033;1322;139743;-58
2021/12/05 22:59:46;;;;;;;50.10;32.60;;;;;;;4.99;67.10;98085.71;212056;1330;140743;-58
2021/12/05 23:04:49;;;;;;;55.70;33.70;;;;;;;5.06;67.07;98081.99;212043;1326;139364;-56
2021/12/05 23:09:53;;;;;;;58.60;35.30;;;;;;;5.12;67.16;98081.33;212440;1326;139205;-61
2021/12/05 23:14:56;;;;;;;56.50;34.30;;;;;;;5.18;67.11;98075.00;213026;1321;139033;-57
2021/12/05 23:19:59;;;;;;;58.20;36.50;;;;;;;5.18;66.73;98067.28;211984;1329;140691;-58
2021/12/05 23:25:03;;;;;;;57.90;34.30;;;;;;;5.16;66.74;98071.58;212512;1322;139628;-59
2021/12/05 23:30:11;;;;;;;67.40;37.90;;;;;;;5.10;66.66;98070.00;213453;1322;139849;-59
2021/12/05 23:35:18;;;;;;;64.20;40.60;;;;;;;5.09;67.00;98080.40;213044;1325;139946;-58
2021/12/05 23:40:22;;;;;;;73.80;42.20;;;;;;;5.07;66.92;98089.34;212398;1324;139047;-58
2021/12/05 23:45:26;;;;;;;68.80;38.80;;;;;;;5.07;67.17;98090.23;212521;1322;139952;-63
2021/12/05 23:50:34;;;;;;;65.40;37.20;;;;;;;5.08;67.04;98093.70;212588;1325;139755;-59
2021/12/05 23:55:39;;;;;;;71.80;39.80;;;;;;;5.02;66.75;98098.77;212779;1322;139964;-63
